sensor_id;sensor_type;location;lat;lon;timestamp;temperature;humidity
75130;HTU21D;63703;44.716;37.846;2023-05-07T00:00:05;17.33;70.65
75130;HTU21D;63703;44.716;37.846;2023-05-07T00:02:34;17.29;70.75
75130;HTU21D;63703;44.716;37.846;2023-05-07T00:05:00;17.28;70.90
75130;HTU21D;63703;44.716;37.846;2023-05-07T00:07:27;17.23;71.01
75130;HTU21D;63703;44.716;37.846;2023-05-07T00:09:53;17.21;71.06
75130;HTU21D;63703;44.716;37.846;2023-05-07T00:12:20;17.19;71.14
75130;HTU21D;63703;44.716;37.846;2023-05-07T00:14:46;17.18;71.19
75130;HTU21D;63703;44.716;37.846;2023-05-07T00:17:11;17.15;71.26
75130;HTU21D;63703;44.716;37.846;2023-05-07T00:19:37;17.11;71.32
75130;HTU21D;63703;44.716;37.846;2023-05-07T00:22:03;17.06;71.35
75130;HTU21D;63703;44.716;37.846;2023-05-07T00:24:29;17.04;71.43
75130;HTU21D;63703;44.716;37.846;2023-05-07T00:26:55;17.02;71.48
75130;HTU21D;63703;44.716;37.846;2023-05-07T00:29:21;16.99;71.55
75130;HTU21D;63703;44.716;37.846;2023-05-07T00:31:49;16.98;71.64
75130;HTU21D;63703;44.716;37.846;2023-05-07T00:34:15;16.93;71.65
75130;HTU21D;63703;44.716;37.846;2023-05-07T00:36:41;16.91;71.66
75130;HTU21D;63703;44.716;37.846;2023-05-07T00:39:07;16.88;71.71
75130;HTU21D;63703;44.716;37.846;2023-05-07T00:41:32;16.86;71.74
75130;HTU21D;63703;44.716;37.846;2023-05-07T00:43:58;16.81;71.78
75130;HTU21D;63703;44.716;37.846;2023-05-07T00:46:24;16.77;71.84
75130;HTU21D;63703;44.716;37.846;2023-05-07T00:48:51;16.76;71.87
75130;HTU21D;63703;44.716;37.846;2023-05-07T00:51:18;16.72;71.96
75130;HTU21D;63703;44.716;37.846;2023-05-07T00:53:44;16.70;72.05
75130;HTU21D;63703;44.716;37.846;2023-05-07T00:56:11;16.64;72.13
75130;HTU21D;63703;44.716;37.846;2023-05-07T00:58:37;16.60;72.19
75130;HTU21D;63703;44.716;37.846;2023-05-07T01:01:03;16.55;72.26
75130;HTU21D;63703;44.716;37.846;2023-05-07T01:03:29;16.49;72.34
75130;HTU21D;63703;44.716;37.846;2023-05-07T01:05:56;16.50;72.43
75130;HTU21D;63703;44.716;37.846;2023-05-07T01:08:23;16.43;72.48
75130;HTU21D;63703;44.716;37.846;2023-05-07T01:10:52;16.35;72.54
75130;HTU21D;63703;44.716;37.846;2023-05-07T01:13:19;16.31;72.57
75130;HTU21D;63703;44.716;37.846;2023-05-07T01:15:46;16.26;72.59
75130;HTU21D;63703;44.716;37.846;2023-05-07T01:18:13;16.21;72.62
75130;HTU21D;63703;44.716;37.846;2023-05-07T01:20:39;16.16;72.68
75130;HTU21D;63703;44.716;37.846;2023-05-07T01:23:07;16.10;72.77
75130;HTU21D;63703;44.716;37.846;2023-05-07T01:25:33;16.05;72.93
75130;HTU21D;63703;44.716;37.846;2023-05-07T01:28:01;16.00;73.01
75130;HTU21D;63703;44.716;37.846;2023-05-07T01:30:33;15.95;73.11
75130;HTU21D;63703;44.716;37.846;2023-05-07T01:33:10;15.92;73.30
75130;HTU21D;63703;44.716;37.846;2023-05-07T01:35:42;15.87;73.69
75130;HTU21D;63703;44.716;37.846;2023-05-07T01:38:09;15.76;73.80
75130;HTU21D;63703;44.716;37.846;2023-05-07T01:40:35;15.66;74.06
75130;HTU21D;63703;44.716;37.846;2023-05-07T01:43:05;15.56;74.44
75130;HTU21D;63703;44.716;37.846;2023-05-07T01:45:34;15.43;74.60
75130;HTU21D;63703;44.716;37.846;2023-05-07T01:48:02;15.30;75.00
75130;HTU21D;63703;44.716;37.846;2023-05-07T01:50:28;15.17;75.47
75130;HTU21D;63703;44.716;37.846;2023-05-07T01:52:55;15.06;76.00
75130;HTU21D;63703;44.716;37.846;2023-05-07T01:55:21;14.97;76.55
75130;HTU21D;63703;44.716;37.846;2023-05-07T01:57:47;14.84;77.05
75130;HTU21D;63703;44.716;37.846;2023-05-07T02:00:13;14.74;77.45
75130;HTU21D;63703;44.716;37.846;2023-05-07T02:02:42;14.66;77.83
75130;HTU21D;63703;44.716;37.846;2023-05-07T02:05:18;14.57;78.16
75130;HTU21D;63703;44.716;37.846;2023-05-07T02:07:47;14.50;78.42
75130;HTU21D;63703;44.716;37.846;2023-05-07T02:10:15;14.44;78.66
75130;HTU21D;63703;44.716;37.846;2023-05-07T02:12:40;14.41;78.91
75130;HTU21D;63703;44.716;37.846;2023-05-07T02:15:08;14.36;79.14
75130;HTU21D;63703;44.716;37.846;2023-05-07T02:17:34;14.32;79.25
75130;HTU21D;63703;44.716;37.846;2023-05-07T02:20:02;14.29;79.33
75130;HTU21D;63703;44.716;37.846;2023-05-07T02:22:29;14.28;79.48
75130;HTU21D;63703;44.716;37.846;2023-05-07T02:24:55;14.27;79.53
75130;HTU21D;63703;44.716;37.846;2023-05-07T02:27:21;14.25;79.63
75130;HTU21D;63703;44.716;37.846;2023-05-07T02:29:47;14.24;79.76
75130;HTU21D;63703;44.716;37.846;2023-05-07T02:32:13;14.23;79.82
75130;HTU21D;63703;44.716;37.846;2023-05-07T02:34:40;14.23;79.94
75130;HTU21D;63703;44.716;37.846;2023-05-07T02:37:05;14.22;80.04
75130;HTU21D;63703;44.716;37.846;2023-05-07T02:39:32;14.21;80.05
75130;HTU21D;63703;44.716;37.846;2023-05-07T02:41:58;14.21;80.09
75130;HTU21D;63703;44.716;37.846;2023-05-07T02:44:24;14.22;80.11
75130;HTU21D;63703;44.716;37.846;2023-05-07T02:46:51;14.22;80.11
75130;HTU21D;63703;44.716;37.846;2023-05-07T02:49:17;14.20;80.05
75130;HTU21D;63703;44.716;37.846;2023-05-07T02:51:43;14.17;80.01
75130;HTU21D;63703;44.716;37.846;2023-05-07T02:54:15;14.14;80.01
75130;HTU21D;63703;44.716;37.846;2023-05-07T02:56:41;14.15;80.05
75130;HTU21D;63703;44.716;37.846;2023-05-07T02:59:07;14.12;80.16
75130;HTU21D;63703;44.716;37.846;2023-05-07T03:01:38;14.08;80.20
75130;HTU21D;63703;44.716;37.846;2023-05-07T03:04:06;14.05;80.25
75130;HTU21D;63703;44.716;37.846;2023-05-07T03:06:32;14.00;80.33
75130;HTU21D;63703;44.716;37.846;2023-05-07T03:08:58;13.99;80.39
75130;HTU21D;63703;44.716;37.846;2023-05-07T03:11:24;14.00;80.35
75130;HTU21D;63703;44.716;37.846;2023-05-07T03:13:51;13.99;80.33
75130;HTU21D;63703;44.716;37.846;2023-05-07T03:16:19;13.98;80.31
75130;HTU21D;63703;44.716;37.846;2023-05-07T03:18:45;13.99;80.33
75130;HTU21D;63703;44.716;37.846;2023-05-07T03:21:11;13.98;80.30
75130;HTU21D;63703;44.716;37.846;2023-05-07T03:23:37;13.96;80.26
75130;HTU21D;63703;44.716;37.846;2023-05-07T03:26:03;13.94;80.27
75130;HTU21D;63703;44.716;37.846;2023-05-07T03:28:29;13.93;80.27
75130;HTU21D;63703;44.716;37.846;2023-05-07T03:30:59;13.92;80.20
75130;HTU21D;63703;44.716;37.846;2023-05-07T03:33:26;13.91;80.11
75130;HTU21D;63703;44.716;37.846;2023-05-07T03:35:53;13.91;80.08
75130;HTU21D;63703;44.716;37.846;2023-05-07T03:38:23;13.89;80.10
75130;HTU21D;63703;44.716;37.846;2023-05-07T03:40:49;13.86;80.09
75130;HTU21D;63703;44.716;37.846;2023-05-07T03:43:16;13.85;80.11
75130;HTU21D;63703;44.716;37.846;2023-05-07T03:45:47;13.84;80.10
75130;HTU21D;63703;44.716;37.846;2023-05-07T03:48:20;13.84;80.09
75130;HTU21D;63703;44.716;37.846;2023-05-07T03:50:48;13.82;80.04
75130;HTU21D;63703;44.716;37.846;2023-05-07T03:53:16;13.80;80.06
75130;HTU21D;63703;44.716;37.846;2023-05-07T03:55:42;13.79;80.14
75130;HTU21D;63703;44.716;37.846;2023-05-07T03:58:08;13.79;80.20
75130;HTU21D;63703;44.716;37.846;2023-05-07T04:00:34;13.77;80.26
75130;HTU21D;63703;44.716;37.846;2023-05-07T04:03:10;13.76;80.29
75130;HTU21D;63703;44.716;37.846;2023-05-07T04:05:36;13.74;80.36
75130;HTU21D;63703;44.716;37.846;2023-05-07T04:08:03;13.73;80.41
75130;HTU21D;63703;44.716;37.846;2023-05-07T04:10:37;13.71;80.44
75130;HTU21D;63703;44.716;37.846;2023-05-07T04:13:08;13.71;80.42
75130;HTU21D;63703;44.716;37.846;2023-05-07T04:15:35;13.68;80.39
75130;HTU21D;63703;44.716;37.846;2023-05-07T04:18:02;13.69;80.35
75130;HTU21D;63703;44.716;37.846;2023-05-07T04:20:28;13.68;80.40
75130;HTU21D;63703;44.716;37.846;2023-05-07T04:23:00;13.64;80.50
75130;HTU21D;63703;44.716;37.846;2023-05-07T04:25:26;13.61;80.63
75130;HTU21D;63703;44.716;37.846;2023-05-07T04:27:56;13.63;80.71
75130;HTU21D;63703;44.716;37.846;2023-05-07T04:30:25;13.63;80.73
75130;HTU21D;63703;44.716;37.846;2023-05-07T04:32:52;13.66;80.85
75130;HTU21D;63703;44.716;37.846;2023-05-07T04:35:19;13.60;80.89
75130;HTU21D;63703;44.716;37.846;2023-05-07T04:37:45;13.59;80.91
75130;HTU21D;63703;44.716;37.846;2023-05-07T04:40:12;13.53;80.96
75130;HTU21D;63703;44.716;37.846;2023-05-07T04:42:38;13.54;80.99
75130;HTU21D;63703;44.716;37.846;2023-05-07T04:45:05;13.53;81.02
75130;HTU21D;63703;44.716;37.846;2023-05-07T04:47:33;13.54;81.04
75130;HTU21D;63703;44.716;37.846;2023-05-07T04:50:00;13.55;81.01
75130;HTU21D;63703;44.716;37.846;2023-05-07T04:52:26;13.58;80.99
75130;HTU21D;63703;44.716;37.846;2023-05-07T04:54:53;13.59;80.98
75130;HTU21D;63703;44.716;37.846;2023-05-07T04:57:19;13.61;80.92
75130;HTU21D;63703;44.716;37.846;2023-05-07T04:59:45;13.66;80.84
75130;HTU21D;63703;44.716;37.846;2023-05-07T05:02:11;13.70;80.77
75130;HTU21D;63703;44.716;37.846;2023-05-07T05:04:38;13.76;80.71
75130;HTU21D;63703;44.716;37.846;2023-05-07T05:07:04;13.81;80.65
75130;HTU21D;63703;44.716;37.846;2023-05-07T05:09:30;13.86;80.53
75130;HTU21D;63703;44.716;37.846;2023-05-07T05:11:56;13.89;80.36
75130;HTU21D;63703;44.716;37.846;2023-05-07T05:14:23;13.86;80.28
75130;HTU21D;63703;44.716;37.846;2023-05-07T05:16:50;13.81;80.30
75130;HTU21D;63703;44.716;37.846;2023-05-07T05:19:17;13.77;80.36
75130;HTU21D;63703;44.716;37.846;2023-05-07T05:21:44;13.75;80.40
75130;HTU21D;63703;44.716;37.846;2023-05-07T05:24:10;13.69;80.46
75130;HTU21D;63703;44.716;37.846;2023-05-07T05:26:38;13.68;80.52
75130;HTU21D;63703;44.716;37.846;2023-05-07T05:29:04;13.67;80.56
75130;HTU21D;63703;44.716;37.846;2023-05-07T05:31:31;13.63;80.62
75130;HTU21D;63703;44.716;37.846;2023-05-07T05:33:57;13.62;80.63
75130;HTU21D;63703;44.716;37.846;2023-05-07T05:36:24;13.60;80.57
75130;HTU21D;63703;44.716;37.846;2023-05-07T05:38:53;13.61;80.51
75130;HTU21D;63703;44.716;37.846;2023-05-07T05:41:21;13.62;80.46
75130;HTU21D;63703;44.716;37.846;2023-05-07T05:43:48;13.69;80.36
75130;HTU21D;63703;44.716;37.846;2023-05-07T05:46:14;13.77;80.24
75130;HTU21D;63703;44.716;37.846;2023-05-07T05:48:40;13.88;80.05
75130;HTU21D;63703;44.716;37.846;2023-05-07T05:51:07;14.05;79.75
75130;HTU21D;63703;44.716;37.846;2023-05-07T05:53:33;14.18;79.43
75130;HTU21D;63703;44.716;37.846;2023-05-07T05:55:59;14.28;79.14
75130;HTU21D;63703;44.716;37.846;2023-05-07T05:58:25;14.36;78.82
75130;HTU21D;63703;44.716;37.846;2023-05-07T06:00:57;14.43;78.56
75130;HTU21D;63703;44.716;37.846;2023-05-07T06:03:25;14.53;78.21
75130;HTU21D;63703;44.716;37.846;2023-05-07T06:05:52;14.62;77.92
75130;HTU21D;63703;44.716;37.846;2023-05-07T06:08:20;14.70;77.75
75130;HTU21D;63703;44.716;37.846;2023-05-07T06:10:46;14.81;77.39
75130;HTU21D;63703;44.716;37.846;2023-05-07T06:13:12;14.88;77.12
75130;HTU21D;63703;44.716;37.846;2023-05-07T06:15:38;14.93;76.93
75130;HTU21D;63703;44.716;37.846;2023-05-07T06:18:08;14.98;76.80
75130;HTU21D;63703;44.716;37.846;2023-05-07T06:20:34;15.04;76.42
75130;HTU21D;63703;44.716;37.846;2023-05-07T06:23:03;15.09;76.18
75130;HTU21D;63703;44.716;37.846;2023-05-07T06:25:32;15.12;76.01
75130;HTU21D;63703;44.716;37.846;2023-05-07T06:27:58;15.14;75.81
75130;HTU21D;63703;44.716;37.846;2023-05-07T06:30:25;15.16;75.68
75130;HTU21D;63703;44.716;37.846;2023-05-07T06:32:53;15.22;75.43
75130;HTU21D;63703;44.716;37.846;2023-05-07T06:35:20;15.27;75.32
75130;HTU21D;63703;44.716;37.846;2023-05-07T06:37:46;15.32;75.11
75130;HTU21D;63703;44.716;37.846;2023-05-07T06:40:17;15.38;74.96
75130;HTU21D;63703;44.716;37.846;2023-05-07T06:42:45;15.43;74.73
75130;HTU21D;63703;44.716;37.846;2023-05-07T06:45:43;15.51;74.68
75130;HTU21D;63703;44.716;37.846;2023-05-07T06:48:10;15.58;74.54
75130;HTU21D;63703;44.716;37.846;2023-05-07T06:50:46;15.60;74.26
75130;HTU21D;63703;44.716;37.846;2023-05-07T06:53:11;15.61;74.11
75130;HTU21D;63703;44.716;37.846;2023-05-07T06:55:38;15.57;73.96
75130;HTU21D;63703;44.716;37.846;2023-05-07T06:58:05;15.55;74.01
75130;HTU21D;63703;44.716;37.846;2023-05-07T07:00:32;15.58;73.90
75130;HTU21D;63703;44.716;37.846;2023-05-07T07:02:58;15.61;73.84
75130;HTU21D;63703;44.716;37.846;2023-05-07T07:05:27;15.69;73.74
75130;HTU21D;63703;44.716;37.846;2023-05-07T07:07:53;15.72;73.50
75130;HTU21D;63703;44.716;37.846;2023-05-07T07:10:20;15.72;73.44
75130;HTU21D;63703;44.716;37.846;2023-05-07T07:12:46;15.73;73.38
75130;HTU21D;63703;44.716;37.846;2023-05-07T07:15:13;15.70;73.18
75130;HTU21D;63703;44.716;37.846;2023-05-07T07:17:40;15.67;73.04
75130;HTU21D;63703;44.716;37.846;2023-05-07T07:20:07;15.66;73.02
75130;HTU21D;63703;44.716;37.846;2023-05-07T07:22:36;15.66;73.01
75130;HTU21D;63703;44.716;37.846;2023-05-07T07:25:02;15.75;72.94
75130;HTU21D;63703;44.716;37.846;2023-05-07T07:27:29;15.84;72.75
75130;HTU21D;63703;44.716;37.846;2023-05-07T07:29:55;15.89;72.51
75130;HTU21D;63703;44.716;37.846;2023-05-07T07:32:20;15.92;72.34
75130;HTU21D;63703;44.716;37.846;2023-05-07T07:34:46;15.98;72.24
75130;HTU21D;63703;44.716;37.846;2023-05-07T07:37:12;16.03;72.02
75130;HTU21D;63703;44.716;37.846;2023-05-07T07:39:38;16.06;71.97
75130;HTU21D;63703;44.716;37.846;2023-05-07T07:42:06;16.10;71.76
75130;HTU21D;63703;44.716;37.846;2023-05-07T07:44:32;16.05;71.71
75130;HTU21D;63703;44.716;37.846;2023-05-07T07:47:04;16.02;71.74
75130;HTU21D;63703;44.716;37.846;2023-05-07T07:49:30;15.99;71.62
75130;HTU21D;63703;44.716;37.846;2023-05-07T07:51:59;15.96;71.68
75130;HTU21D;63703;44.716;37.846;2023-05-07T07:54:26;15.95;71.69
75130;HTU21D;63703;44.716;37.846;2023-05-07T07:56:52;15.88;71.67
75130;HTU21D;63703;44.716;37.846;2023-05-07T07:59:19;15.87;71.54
75130;HTU21D;63703;44.716;37.846;2023-05-07T08:01:48;15.80;71.61
75130;HTU21D;63703;44.716;37.846;2023-05-07T08:04:16;15.71;71.62
75130;HTU21D;63703;44.716;37.846;2023-05-07T08:06:43;15.65;71.81
75130;HTU21D;63703;44.716;37.846;2023-05-07T08:09:10;15.61;71.87
75130;HTU21D;63703;44.716;37.846;2023-05-07T08:11:38;15.59;71.90
75130;HTU21D;63703;44.716;37.846;2023-05-07T08:14:05;15.57;71.97
75130;HTU21D;63703;44.716;37.846;2023-05-07T08:16:31;15.58;72.03
75130;HTU21D;63703;44.716;37.846;2023-05-07T08:18:58;15.55;72.05
75130;HTU21D;63703;44.716;37.846;2023-05-07T08:21:24;15.56;72.07
75130;HTU21D;63703;44.716;37.846;2023-05-07T08:23:52;15.59;72.04
75130;HTU21D;63703;44.716;37.846;2023-05-07T08:26:18;15.63;71.96
75130;HTU21D;63703;44.716;37.846;2023-05-07T08:28:44;15.68;71.87
75130;HTU21D;63703;44.716;37.846;2023-05-07T08:31:10;15.67;71.85
75130;HTU21D;63703;44.716;37.846;2023-05-07T08:33:38;15.67;71.81
75130;HTU21D;63703;44.716;37.846;2023-05-07T08:36:05;15.68;71.74
75130;HTU21D;63703;44.716;37.846;2023-05-07T08:38:31;15.70;71.66
75130;HTU21D;63703;44.716;37.846;2023-05-07T08:40:58;15.72;71.70
75130;HTU21D;63703;44.716;37.846;2023-05-07T08:43:26;15.77;71.61
75130;HTU21D;63703;44.716;37.846;2023-05-07T08:45:54;15.80;71.54
75130;HTU21D;63703;44.716;37.846;2023-05-07T08:48:25;15.82;71.49
75130;HTU21D;63703;44.716;37.846;2023-05-07T08:51:00;15.88;71.55
75130;HTU21D;63703;44.716;37.846;2023-05-07T08:53:26;16.00;71.47
75130;HTU21D;63703;44.716;37.846;2023-05-07T08:55:53;16.13;71.32
75130;HTU21D;63703;44.716;37.846;2023-05-07T08:58:19;16.35;71.08
75130;HTU21D;63703;44.716;37.846;2023-05-07T09:00:46;16.60;70.68
75130;HTU21D;63703;44.716;37.846;2023-05-07T09:03:13;16.77;70.37
75130;HTU21D;63703;44.716;37.846;2023-05-07T09:05:43;16.86;70.03
75130;HTU21D;63703;44.716;37.846;2023-05-07T09:08:14;16.89;69.66
75130;HTU21D;63703;44.716;37.846;2023-05-07T09:10:40;16.92;69.67
75130;HTU21D;63703;44.716;37.846;2023-05-07T09:13:06;16.91;69.44
75130;HTU21D;63703;44.716;37.846;2023-05-07T09:15:33;16.92;69.50
75130;HTU21D;63703;44.716;37.846;2023-05-07T09:18:00;16.99;69.45
75130;HTU21D;63703;44.716;37.846;2023-05-07T09:20:31;17.08;69.20
75130;HTU21D;63703;44.716;37.846;2023-05-07T09:22:58;17.16;69.04
75130;HTU21D;63703;44.716;37.846;2023-05-07T09:25:31;17.29;68.71
75130;HTU21D;63703;44.716;37.846;2023-05-07T09:28:11;17.35;68.69
75130;HTU21D;63703;44.716;37.846;2023-05-07T09:30:37;17.38;68.56
75130;HTU21D;63703;44.716;37.846;2023-05-07T09:33:06;17.46;68.40
75130;HTU21D;63703;44.716;37.846;2023-05-07T09:35:37;17.48;68.20
75130;HTU21D;63703;44.716;37.846;2023-05-07T09:38:08;17.49;68.09
75130;HTU21D;63703;44.716;37.846;2023-05-07T09:40:35;17.46;68.01
75130;HTU21D;63703;44.716;37.846;2023-05-07T09:43:10;17.47;67.85
75130;HTU21D;63703;44.716;37.846;2023-05-07T09:45:41;17.48;67.91
75130;HTU21D;63703;44.716;37.846;2023-05-07T09:48:07;17.46;67.88
75130;HTU21D;63703;44.716;37.846;2023-05-07T09:50:36;17.47;67.75
75130;HTU21D;63703;44.716;37.846;2023-05-07T09:53:06;17.45;67.62
75130;HTU21D;63703;44.716;37.846;2023-05-07T09:55:36;17.40;67.81
75130;HTU21D;63703;44.716;37.846;2023-05-07T09:58:03;17.46;67.54
75130;HTU21D;63703;44.716;37.846;2023-05-07T10:00:30;17.40;67.65
75130;HTU21D;63703;44.716;37.846;2023-05-07T10:03:06;17.35;67.68
75130;HTU21D;63703;44.716;37.846;2023-05-07T10:05:42;17.28;67.77
75130;HTU21D;63703;44.716;37.846;2023-05-07T10:08:10;17.21;67.97
75130;HTU21D;63703;44.716;37.846;2023-05-07T10:10:39;17.14;68.01
75130;HTU21D;63703;44.716;37.846;2023-05-07T10:13:10;17.07;68.15
75130;HTU21D;63703;44.716;37.846;2023-05-07T10:15:39;16.98;68.37
75130;HTU21D;63703;44.716;37.846;2023-05-07T10:18:06;16.92;68.48
75130;HTU21D;63703;44.716;37.846;2023-05-07T10:20:36;16.85;68.69
75130;HTU21D;63703;44.716;37.846;2023-05-07T10:23:04;16.75;68.87
75130;HTU21D;63703;44.716;37.846;2023-05-07T10:25:38;16.67;69.07
75130;HTU21D;63703;44.716;37.846;2023-05-07T10:28:12;16.60;69.28
75130;HTU21D;63703;44.716;37.846;2023-05-07T10:33:23;16.44;69.83
75130;HTU21D;63703;44.716;37.846;2023-05-07T10:35:55;16.36;70.17
75130;HTU21D;63703;44.716;37.846;2023-05-07T10:38:23;16.32;70.40
75130;HTU21D;63703;44.716;37.846;2023-05-07T10:40:51;16.30;70.62
75130;HTU21D;63703;44.716;37.846;2023-05-07T10:43:17;16.28;70.87
75130;HTU21D;63703;44.716;37.846;2023-05-07T10:46:10;16.21;71.40
75130;HTU21D;63703;44.716;37.846;2023-05-07T10:51:37;16.01;71.64
75130;HTU21D;63703;44.716;37.846;2023-05-07T10:56:47;15.96;72.00
75130;HTU21D;63703;44.716;37.846;2023-05-07T11:01:58;15.97;72.23
75130;HTU21D;63703;44.716;37.846;2023-05-07T11:04:34;16.00;72.25
75130;HTU21D;63703;44.716;37.846;2023-05-07T11:07:24;16.08;72.31
75130;HTU21D;63703;44.716;37.846;2023-05-07T11:15:40;16.20;72.20
75130;HTU21D;63703;44.716;37.846;2023-05-07T11:18:18;16.18;72.15
75130;HTU21D;63703;44.716;37.846;2023-05-07T11:20:53;16.19;72.15
75130;HTU21D;63703;44.716;37.846;2023-05-07T11:26:25;16.20;72.12
75130;HTU21D;63703;44.716;37.846;2023-05-07T11:28:52;16.21;72.13
75130;HTU21D;63703;44.716;37.846;2023-05-07T11:31:27;16.24;72.11
75130;HTU21D;63703;44.716;37.846;2023-05-07T11:33:56;16.21;72.05
75130;HTU21D;63703;44.716;37.846;2023-05-07T11:36:23;16.24;72.06
75130;HTU21D;63703;44.716;37.846;2023-05-07T11:38:52;16.25;72.04
75130;HTU21D;63703;44.716;37.846;2023-05-07T11:41:18;16.28;72.01
75130;HTU21D;63703;44.716;37.846;2023-05-07T11:43:58;16.30;72.04
75130;HTU21D;63703;44.716;37.846;2023-05-07T11:46:24;16.31;72.04
75130;HTU21D;63703;44.716;37.846;2023-05-07T11:48:51;16.28;72.18
75130;HTU21D;63703;44.716;37.846;2023-05-07T11:51:21;16.22;72.48
75130;HTU21D;63703;44.716;37.846;2023-05-07T11:53:48;16.15;72.61
75130;HTU21D;63703;44.716;37.846;2023-05-07T11:56:16;16.12;72.77
75130;HTU21D;63703;44.716;37.846;2023-05-07T11:58:43;16.06;72.90
75130;HTU21D;63703;44.716;37.846;2023-05-07T12:01:10;16.00;73.01
75130;HTU21D;63703;44.716;37.846;2023-05-07T12:03:39;15.98;73.09
75130;HTU21D;63703;44.716;37.846;2023-05-07T12:06:08;15.95;73.17
75130;HTU21D;63703;44.716;37.846;2023-05-07T12:08:37;15.92;73.30
75130;HTU21D;63703;44.716;37.846;2023-05-07T12:11:07;15.88;73.45
75130;HTU21D;63703;44.716;37.846;2023-05-07T12:13:33;15.84;73.58
75130;HTU21D;63703;44.716;37.846;2023-05-07T12:15:59;15.82;73.68
75130;HTU21D;63703;44.716;37.846;2023-05-07T12:18:25;15.81;73.75
75130;HTU21D;63703;44.716;37.846;2023-05-07T12:20:51;15.83;73.77
75130;HTU21D;63703;44.716;37.846;2023-05-07T12:23:17;15.84;73.71
75130;HTU21D;63703;44.716;37.846;2023-05-07T12:25:44;15.85;73.73
75130;HTU21D;63703;44.716;37.846;2023-05-07T12:28:14;15.86;73.74
75130;HTU21D;63703;44.716;37.846;2023-05-07T12:30:46;15.87;73.78
75130;HTU21D;63703;44.716;37.846;2023-05-07T12:33:16;15.88;73.80
75130;HTU21D;63703;44.716;37.846;2023-05-07T12:35:42;15.92;73.80
75130;HTU21D;63703;44.716;37.846;2023-05-07T12:38:14;15.97;73.82
75130;HTU21D;63703;44.716;37.846;2023-05-07T12:43:07;16.05;73.67
75130;HTU21D;63703;44.716;37.846;2023-05-07T12:45:41;16.12;73.76
75130;HTU21D;63703;44.716;37.846;2023-05-07T12:48:10;16.17;73.65
75130;HTU21D;63703;44.716;37.846;2023-05-07T12:50:36;16.21;73.65
75130;HTU21D;63703;44.716;37.846;2023-05-07T12:53:06;16.28;73.66
75130;HTU21D;63703;44.716;37.846;2023-05-07T12:55:47;16.35;73.54
75130;HTU21D;63703;44.716;37.846;2023-05-07T12:58:29;16.40;73.45
75130;HTU21D;63703;44.716;37.846;2023-05-07T13:00:56;16.43;73.40
75130;HTU21D;63703;44.716;37.846;2023-05-07T13:03:27;16.43;73.38
75130;HTU21D;63703;44.716;37.846;2023-05-07T13:05:55;16.45;73.40
75130;HTU21D;63703;44.716;37.846;2023-05-07T13:08:26;16.51;73.29
75130;HTU21D;63703;44.716;37.846;2023-05-07T13:10:52;16.55;73.20
75130;HTU21D;63703;44.716;37.846;2023-05-07T13:13:19;16.60;73.04
75130;HTU21D;63703;44.716;37.846;2023-05-07T13:15:46;16.63;72.93
75130;HTU21D;63703;44.716;37.846;2023-05-07T13:18:13;16.63;72.83
75130;HTU21D;63703;44.716;37.846;2023-05-07T13:20:38;16.61;72.80
75130;HTU21D;63703;44.716;37.846;2023-05-07T13:23:05;16.56;72.80
75130;HTU21D;63703;44.716;37.846;2023-05-07T13:25:31;16.49;72.94
75130;HTU21D;63703;44.716;37.846;2023-05-07T13:27:57;16.43;73.07
75130;HTU21D;63703;44.716;37.846;2023-05-07T13:30:23;16.37;73.27
75130;HTU21D;63703;44.716;37.846;2023-05-07T13:32:49;16.32;73.46
75130;HTU21D;63703;44.716;37.846;2023-05-07T13:35:16;16.27;73.65
75130;HTU21D;63703;44.716;37.846;2023-05-07T13:37:42;16.21;73.79
75130;HTU21D;63703;44.716;37.846;2023-05-07T13:40:08;16.17;73.90
75130;HTU21D;63703;44.716;37.846;2023-05-07T13:42:37;16.13;73.95
75130;HTU21D;63703;44.716;37.846;2023-05-07T13:45:03;16.07;74.01
75130;HTU21D;63703;44.716;37.846;2023-05-07T13:47:30;16.03;74.11
75130;HTU21D;63703;44.716;37.846;2023-05-07T13:49:56;16.01;74.23
75130;HTU21D;63703;44.716;37.846;2023-05-07T13:52:22;15.97;74.38
75130;HTU21D;63703;44.716;37.846;2023-05-07T13:54:48;15.93;74.54
75130;HTU21D;63703;44.716;37.846;2023-05-07T13:57:14;15.91;74.67
75130;HTU21D;63703;44.716;37.846;2023-05-07T13:59:40;15.92;74.76
75130;HTU21D;63703;44.716;37.846;2023-05-07T14:02:06;15.90;74.90
75130;HTU21D;63703;44.716;37.846;2023-05-07T14:04:33;15.87;75.05
75130;HTU21D;63703;44.716;37.846;2023-05-07T14:06:59;15.87;75.18
75130;HTU21D;63703;44.716;37.846;2023-05-07T14:09:25;15.84;75.31
75130;HTU21D;63703;44.716;37.846;2023-05-07T14:11:51;15.87;75.37
75130;HTU21D;63703;44.716;37.846;2023-05-07T14:14:18;15.82;75.52
75130;HTU21D;63703;44.716;37.846;2023-05-07T14:16:44;15.81;75.61
75130;HTU21D;63703;44.716;37.846;2023-05-07T14:19:14;15.77;75.71
75130;HTU21D;63703;44.716;37.846;2023-05-07T14:21:41;15.76;75.89
75130;HTU21D;63703;44.716;37.846;2023-05-07T14:24:07;15.74;76.00
75130;HTU21D;63703;44.716;37.846;2023-05-07T14:26:34;15.72;76.15
75130;HTU21D;63703;44.716;37.846;2023-05-07T14:29:00;15.71;76.24
75130;HTU21D;63703;44.716;37.846;2023-05-07T14:31:26;15.71;76.33
75130;HTU21D;63703;44.716;37.846;2023-05-07T14:33:52;15.69;76.42
75130;HTU21D;63703;44.716;37.846;2023-05-07T14:36:19;15.67;76.49
75130;HTU21D;63703;44.716;37.846;2023-05-07T14:38:52;15.63;76.57
75130;HTU21D;63703;44.716;37.846;2023-05-07T14:41:20;15.62;76.65
75130;HTU21D;63703;44.716;37.846;2023-05-07T14:43:47;15.61;76.72
75130;HTU21D;63703;44.716;37.846;2023-05-07T14:46:18;15.59;76.79
75130;HTU21D;63703;44.716;37.846;2023-05-07T14:48:45;15.57;76.87
75130;HTU21D;63703;44.716;37.846;2023-05-07T14:51:14;15.57;76.93
75130;HTU21D;63703;44.716;37.846;2023-05-07T14:53:41;15.55;77.04
75130;HTU21D;63703;44.716;37.846;2023-05-07T14:56:07;15.53;77.14
75130;HTU21D;63703;44.716;37.846;2023-05-07T14:58:34;15.53;77.24
75130;HTU21D;63703;44.716;37.846;2023-05-07T15:01:00;15.51;77.34
75130;HTU21D;63703;44.716;37.846;2023-05-07T15:03:27;15.44;77.52
75130;HTU21D;63703;44.716;37.846;2023-05-07T15:05:53;15.39;77.63
75130;HTU21D;63703;44.716;37.846;2023-05-07T15:08:19;15.38;77.75
75130;HTU21D;63703;44.716;37.846;2023-05-07T15:10:45;15.34;77.89
75130;HTU21D;63703;44.716;37.846;2023-05-07T15:13:12;15.29;77.98
75130;HTU21D;63703;44.716;37.846;2023-05-07T15:15:41;15.24;78.24
75130;HTU21D;63703;44.716;37.846;2023-05-07T15:18:07;15.21;78.34
75130;HTU21D;63703;44.716;37.846;2023-05-07T15:20:33;15.13;78.53
75130;HTU21D;63703;44.716;37.846;2023-05-07T15:22:59;15.09;78.67
75130;HTU21D;63703;44.716;37.846;2023-05-07T15:25:25;15.08;78.88
75130;HTU21D;63703;44.716;37.846;2023-05-07T15:27:51;15.03;79.03